Data for 10/29/2005

Time Sea-Level Adjusted Pressure Absolute Pressure Temperature Relative Humidity Dew Point   
(mb) (inHg) (mb) (inHg) (C) (F) (%) (C) (F)
00:05 1016 30 845 24.95 4.8 40.6 76 0.9 33.6
00:10 1016 30 845 24.95 4.7 40.5 75 0.7 33.2
00:15 1016 30 845 24.95 5 40.9 72 0.4 32.7
00:20 1016 30 845 24.95 5.5 41.9 70 0.5 32.8
00:25 1016 30 846 24.98 5.6 42.1 76 1.7 35
00:30 1016 30 845 24.95 4.6 40.3 78 1.1 34
00:35 1016 30 846 24.98 4.5 40 77 0.9 33.6
00:40 1016 30 846 24.98 4.2 39.5 77 0.5 33
00:45 1016 30 846 24.98 4.4 40 75 0.4 32.7
00:50 1016 30 845 24.95 4.8 40.6 74 0.5 33
00:55 1016 30 845 24.95 4.6 40.3 76 0.7 33.3
01:00 1016 30 845 24.95 4.4 40 76 0.7 33.2
01:05 1016 30 845 24.95 4.1 39.4 77 0.4 32.8
01:10 1016 30 845 24.95 4.4 39.8 75 0.3 32.5
01:15 1016 30 845 24.95 4.8 40.6 73 0.3 32.6
01:20 1016 30 845 24.95 5.1 41.2 72 0.4 32.8
01:25 1016 30 845 24.95 5.2 41.3 73 0.7 33.2
01:30 1016 30 846 24.98 5.2 41.4 72 0.5 33
01:35 1016 30 846 24.98 5.6 42.1 70 0.7 33.2
01:40 1017 30.03 846 24.98 5.6 42 72 0.9 33.6
01:45 1017 30.03 846 24.98 5.6 42.1 71 0.8 33.5
01:50 1017 30.03 846 24.98 5.6 42 74 1.2 34.2
01:55 1017 30.03 846 24.98 5.5 41.9 73 1.1 33.9
02:00 1017 30.03 846 24.98 6.2 43.1 75 2.1 35.8
02:05 1017 30.03 846 24.98 6.2 43.2 76 2.3 36.1
02:10 1017 30.03 846 24.98 6.3 43.3 75 2.3 36.1
02:15 1017 30.03 846 24.98 6.4 43.5 75 2.2 36
02:20 1017 30.03 846 24.98 6.2 43.1 75 2.1 35.8
02:25 1017 30.03 846 24.98 5.9 42.6 75 1.8 35.3
02:30 1017 30.03 846 24.98 5.8 42.5 75 1.8 35.2
02:35 1017 30.03 846 24.98 6 42.8 75 1.9 35.3
02:40 1017 30.03 846 24.98 6.1 42.9 75 2 35.6
02:45 1017 30.03 846 24.98 5.9 42.6 71 1.1 34.1
02:50 1017 30.03 846 24.98 6 42.9 70 1 33.7
02:55 1017 30.03 846 24.98 6.4 43.5 64 0.1 32.2
03:00 1017 30.03 846 24.98 6.8 44.3 64 0.5 32.9
03:05 1017 30.03 846 24.98 6.9 44.4 63 0.3 32.6
03:10 1017 30.03 846 24.98 6.9 44.5 62 0.1 32.1
03:15 1016 30 846 24.98 7.3 45.2 53 -1.7 29
03:20 1016 30 846 24.98 7.3 45.2 69 2 35.6
03:25 1016 30 846 24.98 6.4 43.6 71 1.7 35
03:30 1016 30 846 24.98 6 42.7 73 1.5 34.6
03:35 1016 30 846 24.98 5.8 42.4 72 1.1 34
03:40 1016 30 846 24.98 5.8 42.4 71 1 33.8
03:45 1016 30 846 24.98 5.8 42.4 72 1.1 34
03:50 1016 30 846 24.98 5.8 42.5 71 0.9 33.6
03:55 1017 30.03 846 24.98 6 42.7 71 1.1 33.9
04:00 1017 30.03 846 24.98 5.9 42.6 71 1 33.8
04:05 1016 30 846 24.98 5.8 42.5 71 1 33.7
04:10 1016 30 846 24.98 5.8 42.5 71 1 33.7
04:15 1016 30 846 24.98 5.6 42.1 73 1.1 34
04:20 1016 30 846 24.98 5.3 41.6 75 1.2 34.1
04:25 1016 30 846 24.98 5.1 41.1 75 1 33.8
04:30 1016 30 846 24.98 5 41 74 0.8 33.4
04:35 1016 30 846 24.98 5.1 41.1 74 0.8 33.5
04:40 1016 30 846 24.98 5 41 75 0.9 33.6
04:45 1017 30.03 846 24.98 4.9 40.9 73 0.5 32.9
04:50 1017 30.03 846 24.98 5.1 41.2 72 0.5 32.9
04:55 1017 30.03 846 24.98 5.2 41.3 73 0.8 33.4
05:00 1017 30.03 846 24.98 5.3 41.5 73 0.8 33.5
05:05 1017 30.03 846 24.98 5.3 41.6 73 1 33.7
05:10 1017 30.03 846 24.98 5.1 41.2 74 0.9 33.6
05:15 1017 30.03 846 24.98 5.2 41.4 74 0.9 33.7
05:20 1017 30.03 846 24.98 5.4 41.6 74 1.1 34
05:25 1017 30.03 846 24.98 5.2 41.3 75 1 33.9
05:30 1017 30.03 846 24.98 5 40.9 76 1 33.9
05:35 1017 30.03 846 24.98 4.8 40.7 76 1 33.8
05:40 1017 30.03 846 24.98 4.8 40.6 76 0.9 33.7
05:45 1017 30.03 846 24.98 4.8 40.7 76 0.9 33.6
05:50 1017 30.03 846 24.98 4.7 40.4 76 0.9 33.6
05:55 1017 30.03 846 24.98 4.2 39.5 78 0.7 33.3
06:00 1017 30.03 846 24.98 4 39.3 79 0.8 33.4
06:05 1017 30.03 846 24.98 3.8 38.8 81 0.8 33.5
06:10 1017 30.03 846 24.98 3.8 38.8 80 0.6 33.1
06:15 1017 30.03 846 24.98 3.6 38.5 81 0.7 33.2
06:20 1017 30.03 846 24.98 3.6 38.5 81 0.7 33.3
06:25 1017 30.03 846 24.98 3.1 37.6 84 0.6 33.1
06:30 1017 30.03 846 24.98 2.9 37.2 84 0.5 32.9
06:35 1017 30.03 846 24.98 2.7 36.9 84 0.2 32.4
06:40 1017 30.03 846 24.98 2.8 37 84 0.3 32.5
06:45 1017 30.03 846 24.98 2.8 37 84 0.4 32.7
06:50 1017 30.03 846 24.98 2.8 37 83 0.2 32.4
06:55 1017 30.03 846 24.98 2.7 36.9 84 0.3 32.6
07:00 1017 30.03 846 24.98 2.7 36.9 84 0.2 32.4
07:05 1017 30.03 846 24.98 2.6 36.7 84 0.2 32.4
07:10 1017 30.03 846 24.98 2.4 36.4 85 0.2 32.3
07:15 1017 30.03 846 24.98 2.3 36.1 86 0.1 32.2
07:20 1017 30.03 846 24.98 2.4 36.3 85 0 32.1
07:25 1017 30.03 846 24.98 2 35.7 86 -0.1 31.8
07:30 1017 30.03 846 24.98 2.1 35.8 84 -0.3 31.5
07:35 1017 30.03 846 24.98 2.4 36.4 84 -0 32
07:40 1017 30.03 846 24.98 2.6 36.6 83 -0.1 31.9
07:45 1017 30.03 846 24.98 2.8 37.1 80 -0.2 31.6
07:50 1017 30.03 846 24.98 2.7 36.8 81 -0.2 31.6
07:55 1017 30.03 846 24.98 2.2 36 83 -0.3 31.5
08:00 1017 30.03 846 24.98 2.3 36.2 82 -0.4 31.2
08:05 1017 30.03 846 24.98 2.6 36.7 80 -0.5 31.1
08:10 1017 30.03 846 24.98 2.6 36.7 81 -0.3 31.4
08:15 1017 30.03 846 24.98 2.3 36.1 83 -0.3 31.5
08:20 1017 30.03 846 24.98 2.1 35.9 84 -0.3 31.5
08:25 1017 30.03 846 24.98 2.2 35.9 84 -0.3 31.5
08:30 1017 30.03 847 25.01 2.3 36.1 82 -0.4 31.3
08:35 1017 30.03 847 25.01 2.6 36.7 81 -0.4 31.3
08:40 1017 30.03 847 25.01 2.7 36.9 81 -0.3 31.5
08:45 1017 30.03 847 25.01 2.6 36.7 80 -0.4 31.3
08:50 1017 30.03 847 25.01 2.7 36.8 80 -0.5 31.2
08:55 1017 30.03 847 25.01 3.1 37.6 77 -0.5 31.1
09:00 1017 30.03 847 25.01 3.4 38 76 -0.5 31.2
09:05 1017 30.03 847 25.01 3.4 38.1 76 -0.4 31.3
09:10 1017 30.03 847 25.01 3 37.4 80 -0.2 31.7
09:15 1017 30.03 847 25.01 2.8 37.1 80 -0.3 31.5
09:20 1017 30.03 847 25.01 2.9 37.3 80 -0.3 31.5
09:25 1018 30.06 847 25.01 2.9 37.2 80 -0.2 31.7
09:30 1018 30.06 847 25.01 2.8 37.1 80 -0.3 31.5
09:35 1018 30.06 847 25.01 2.8 37.1 81 -0.1 31.9
09:40 1018 30.06 847 25.01 2.8 37 81 -0.1 31.8
09:45 1018 30.06 847 25.01 3 37.3 80 -0.2 31.7
09:50 1018 30.06 847 25.01 3.2 37.7 79 -0.1 31.8
09:55 1018 30.06 847 25.01 3.7 38.6 75 -0.3 31.4
10:00 1018 30.06 847 25.01 4.2 39.6 74 -0 31.9
10:05 1018 30.06 847 25.01 4.9 40.9 72 0.3 32.6
10:10 1018 30.06 847 25.01 5.8 42.4 67 0.1 32.1
10:15 1018 30.06 847 25.01 6.5 43.6 66 0.5 32.9
10:20 1018 30.06 847 25.01 5.9 42.6 69 0.7 33.3
10:25 1018 30.06 847 25.01 6.1 42.9 69 0.9 33.6
10:30 1018 30.06 847 25.01 6.3 43.4 69 1 33.8
10:35 1018 30.06 847 25.01 6.6 43.9 67 0.9 33.7
10:40 1018 30.06 847 25.01 7 44.5 66 1.1 33.9
10:45 1018 30.06 847 25.01 7.1 44.8 65 1.1 33.9
10:50 1018 30.06 847 25.01 7.2 45 65 1.1 34
10:55 1018 30.06 847 25.01 7.4 45.3 63 0.9 33.7
11:00 1018 30.06 847 25.01 7.5 45.5 66 1.7 35
11:05 1018 30.06 847 25.01 7.4 45.3 68 1.9 35.4
11:10 1018 30.06 847 25.01 8 46.4 62 1.1 34
11:15 1018 30.06 847 25.01 8.5 47.2 64 2.1 35.7
11:20 1018 30.06 847 25.01 8.3 47 63 1.7 35.1
11:25 1018 30.06 847 25.01 7.4 45.3 67 1.7 35
11:30 1018 30.06 847 25.01 6.5 43.6 73 2 35.6
11:35 1018 30.06 847 25.01 6.6 43.8 70 1.5 34.7
11:40 1018 30.06 847 25.01 7.2 44.9 69 1.8 35.3
11:45 1017 30.03 847 25.01 7.9 46.3 64 1.6 35
11:50 1017 30.03 847 25.01 8.5 47.2 63 1.8 35.3
11:55 1017 30.03 847 25.01 8.7 47.7 62 1.8 35.2
12:00 1017 30.03 847 25.01 8.8 47.8 62 1.8 35.3
12:05 1017 30.03 847 25.01 8.9 48 61 1.9 35.4
12:10 1017 30.03 847 25.01 9.2 48.6 60 1.8 35.2
12:15 1018 30.06 847 25.01 9.6 49.2 57 1.6 34.9
12:20 1017 30.03 847 25.01 9.1 48.4 60 1.9 35.4
12:25 1017 30.03 847 25.01 9.3 48.8 60 2.1 35.7
12:30 1017 30.03 847 25.01 9.5 49 61 2.4 36.3
12:35 1017 30.03 847 25.01 9.5 49.1 62 2.5 36.5
12:40 1017 30.03 846 24.98 9.9 49.7 61 2.7 36.8
12:45 1017 30.03 847 25.01 9.7 49.5 61 2.6 36.7
12:50 1017 30.03 846 24.98 9.9 49.8 59 2.3 36.1
12:55 1017 30.03 847 25.01 9.8 49.6 60 2.5 36.5
13:00 1017 30.03 847 25.01 9.7 49.4 62 2.7 36.9
13:05 1017 30.03 846 24.98 9.5 49.1 62 2.7 36.8
13:10 1017 30.03 846 24.98 9.7 49.4 59 2.1 35.8
13:15 1017 30.03 846 24.98 10 49.9 57 2 35.5
13:20 1017 30.03 846 24.98 10.1 50.1 58 2.2 36
13:25 1017 30.03 847 25.01 9.4 48.9 62 2.6 36.7
13:30 1017 30.03 847 25.01 9.4 48.8 60 2 35.7
13:35 1017 30.03 847 25.01 9.1 48.4 63 2.4 36.3
13:40 1017 30.03 847 25.01 8.5 47.2 69 3.2 37.8
13:45 1017 30.03 847 25.01 7.9 46.2 70 2.8 37.1
13:50 1017 30.03 847 25.01 7.6 45.6 69 2.3 36.1
13:55 1017 30.03 847 25.01 7.6 45.6 69 2.2 36
14:00 1018 30.06 847 25.01 7.4 45.3 68 2 35.5
14:05 1018 30.06 847 25.01 7.1 44.8 66 1.2 34.2
14:10 1018 30.06 847 25.01 7.1 44.7 65 0.9 33.7
14:15 1018 30.06 847 25.01 6.9 44.5 64 0.6 33.1
14:20 1018 30.06 847 25.01 6.9 44.5 64 0.6 33.1
14:25 1018 30.06 847 25.01 6.8 44.2 64 0.5 32.9
14:30 1018 30.06 847 25.01 6.6 43.9 64 0.3 32.5
14:35 1018 30.06 847 25.01 6.6 43.9 64 0.4 32.7
14:40 1018 30.06 847 25.01 6.5 43.8 64 0.3 32.5
14:45 1018 30.06 847 25.01 6.6 43.8 63 -0 32
14:50 1018 30.06 847 25.01 6.5 43.7 62 -0.2 31.7
14:55 1018 30.06 847 25.01 6.4 43.5 63 -0.2 31.7
15:00 1018 30.06 847 25.01 6.4 43.6 63 -0 31.9
15:05 1018 30.06 847 25.01 6.3 43.4 63 -0.2 31.7
15:10 1018 30.06 847 25.01 6.1 43 63 -0.3 31.5
15:15 1018 30.06 847 25.01 6 42.8 64 -0.2 31.6
15:20 1018 30.06 847 25.01 6 42.8 65 -0.1 31.8
15:25 1018 30.06 848 25.04 5.8 42.5 66 -0 32
15:30 1018 30.06 848 25.04 5.7 42.2 68 0.2 32.3
15:35 1019 30.09 848 25.04 5.6 42 67 -0.1 31.8
15:40 1019 30.09 848 25.04 5.6 42.1 67 0 32
15:45 1019 30.09 848 25.04 5.5 41.8 69 0.2 32.4
15:50 1019 30.09 848 25.04 5.2 41.4 72 0.6 33
15:55 1019 30.09 848 25.04 5.1 41.1 72 0.5 32.9
16:00 1019 30.09 848 25.04 4.9 40.8 72 0.4 32.6
16:05 1019 30.09 848 25.04 4.7 40.5 73 0.3 32.6
16:10 1019 30.09 848 25.04 4.6 40.2 74 0.3 32.6
16:15 1019 30.09 848 25.04 4.4 39.8 76 0.5 32.9
16:20 1019 30.09 848 25.04 4.5 40 75 0.4 32.7
16:25 1019 30.09 848 25.04 4.5 40.2 74 0.4 32.7
16:30 1019 30.09 848 25.04 4.6 40.2 74 0.4 32.6
16:35 1019 30.09 848 25.04 4.5 40.1 75 0.5 32.8
16:40 1019 30.09 848 25.04 4.2 39.6 77 0.5 33
16:45 1019 30.09 848 25.04 4 39.2 78 0.5 32.9
16:50 1019 30.09 849 25.07 3.8 38.8 79 0.5 32.9
16:55 1019 30.09 849 25.07 3.7 38.7 81 0.7 33.3
17:00 1019 30.09 849 25.07 3.6 38.5 81 0.6 33
17:05 1019 30.09 849 25.07 3.5 38.3 82 0.7 33.2
17:10 1019 30.09 849 25.07 3.4 38.1 83 0.8 33.5
17:15 1019 30.09 849 25.07 3.3 38 83 0.7 33.3
17:20 1019 30.09 849 25.07 3.3 38 83 0.8 33.4
17:25 1020 30.12 849 25.07 3.4 38.2 82 0.7 33.2
17:30 1020 30.12 849 25.07 3.5 38.2 82 0.6 33.1
17:35 1020 30.12 849 25.07 3.5 38.2 80 0.3 32.5
17:40 1020 30.12 849 25.07 3.7 38.6 78 0.2 32.3
17:45 1020 30.12 849 25.07 3.9 39 81 0.8 33.5
17:50 1020 30.12 849 25.07 3.6 38.4 82 0.7 33.3
17:55 1020 30.12 849 25.07 3.7 38.6 80 0.5 32.9
18:00 1020 30.12 849 25.07 3.7 38.6 81 0.7 33.2
18:05 1020 30.12 849 25.07 3.5 38.3 83 0.8 33.5
18:10 1020 30.12 849 25.07 3.3 38 84 0.9 33.6
18:15 1020 30.12 849 25.07 3.2 37.7 84 0.7 33.3
18:20 1020 30.12 849 25.07 3.1 37.5 84 0.6 33.1
18:25 1020 30.12 849 25.07 3 37.4 84 0.6 33.1
18:30 1020 30.12 849 25.07 2.9 37.2 86 0.7 33.3
18:35 1020 30.12 849 25.07 2.7 36.8 86 0.6 33
18:40 1020 30.12 849 25.07 2.8 37 83 0.1 32.2
18:45 1020 30.12 849 25.07 3 37.3 84 0.5 32.8
18:50 1020 30.12 849 25.07 2.8 37.1 84 0.4 32.7
18:55 1020 30.12 849 25.07 2.9 37.3 83 0.3 32.5
19:00 1020 30.12 849 25.07 2.8 37 83 0.2 32.3
19:05 1020 30.12 849 25.07 2.7 36.9 82 -0.1 31.8
19:10 1020 30.12 849 25.07 2.6 36.7 82 -0.2 31.6
19:15 1020 30.12 849 25.07 2.4 36.3 81 -0.5 31.1
19:20 1020 30.12 849 25.07 2.5 36.5 79 -0.8 30.5
19:25 1020 30.12 849 25.07 2.7 36.9 79 -0.6 30.9
19:30 1020 30.12 849 25.07 2.8 37 78 -0.7 30.7
19:35 1020 30.12 849 25.07 2.9 37.2 78 -0.6 30.9
19:40 1020 30.12 849 25.07 2.6 36.6 80 -0.4 31.2
19:45 1020 30.12 849 25.07 2.4 36.3 80 -0.7 30.7
19:50 1020 30.12 849 25.07 2.4 36.3 80 -0.8 30.6
19:55 1020 30.12 849 25.07 2.5 36.5 78 -0.9 30.4
20:00 1020 30.12 849 25.07 2.4 36.3 80 -0.7 30.7
20:05 1020 30.12 849 25.07 2.3 36.2 80 -0.7 30.7
20:10 1020 30.12 850 25.1 2.3 36.2 79 -0.9 30.4
20:15 1020 30.12 850 25.1 1.8 35.2 85 -0.4 31.2
20:20 1020 30.12 849 25.07 1 33.9 87 -0.9 30.4
20:25 1020 30.12 850 25.1 1.3 34.4 83 -1.2 29.8
20:30 1020 30.12 850 25.1 1.9 35.4 80 -1.2 29.8
20:35 1020 30.12 850 25.1 2 35.7 78 -1.3 29.6
20:40 1020 30.12 850 25.1 2.1 35.7 79 -1.2 29.9
20:45 1020 30.12 850 25.1 2 35.6 78 -1.5 29.4
20:50 1020 30.12 850 25.1 2 35.7 79 -1.2 29.8
20:55 1020 30.12 850 25.1 1.5 34.7 80 -1.5 29.3
21:00 1020 30.12 850 25.1 1.4 34.5 80 -1.7 28.9
21:05 1021 30.15 850 25.1 1.6 34.9 80 -1.5 29.2
21:10 1021 30.15 850 25.1 1.4 34.5 80 -1.7 29
21:15 1020 30.12 850 25.1 1.5 34.7 79 -1.8 28.7
21:20 1020 30.12 850 25.1 1.5 34.7 79 -1.7 29
21:25 1020 30.12 850 25.1 1.2 34.1 80 -1.9 28.5
21:30 1021 30.15 850 25.1 1.3 34.4 78 -2.1 28.3
21:35 1021 30.15 850 25.1 1.6 34.9 76 -2.1 28.2
21:40 1021 30.15 850 25.1 2 35.5 75 -2 28.5
21:45 1021 30.15 850 25.1 2 35.5 75 -2 28.4
21:50 1021 30.15 850 25.1 1.7 35.1 77 -2 28.4
21:55 1021 30.15 850 25.1 1.5 34.7 76 -2.2 28
22:00 1021 30.15 850 25.1 1.6 34.9 76 -2.3 27.9
22:05 1021 30.15 850 25.1 1.7 35 76 -2.1 28.2
22:10 1021 30.15 850 25.1 1.6 34.9 76 -2.2 28.1
22:15 1021 30.15 850 25.1 1.7 35 75 -2.4 27.7
22:20 1021 30.15 850 25.1 1.5 34.8 76 -2.2 28
22:25 1021 30.15 850 25.1 1.1 34 80 -1.9 28.5
22:30 1021 30.15 850 25.1 0.8 33.5 82 -2 28.5
22:35 1021 30.15 850 25.1 0.9 33.6 82 -1.9 28.6
22:40 1021 30.15 850 25.1 1.1 34 80 -1.9 28.6
22:45 1021 30.15 850 25.1 1.3 34.4 79 -2 28.4
22:50 1021 30.15 850 25.1 1.4 34.5 79 -1.9 28.6
22:55 1021 30.15 850 25.1 1.3 34.4 79 -1.8 28.7
23:00 1021 30.15 850 25.1 1.2 34.2 79 -1.9 28.5
23:05 1021 30.15 850 25.1 1 33.9 80 -2 28.4
23:10 1021 30.15 850 25.1 1 33.7 80 -2.1 28.1
23:15 1021 30.15 850 25.1 1.1 34 79 -2.2 28
23:20 1021 30.15 850 25.1 1.2 34.1 79 -2.1 28.2
23:25 1021 30.15 850 25.1 1.3 34.4 78 -2.2 28.1
23:30 1021 30.15 850 25.1 1.4 34.5 76 -2.3 27.8
23:35 1021 30.15 850 25.1 1.5 34.7 76 -2.3 27.8
23:40 1021 30.15 850 25.1 1.5 34.8 76 -2.3 27.9
23:45 1021 30.15 851 25.13 1.8 35.3 74 -2.3 27.8
23:50 1021 30.15 851 25.13 1.9 35.4 75 -2 28.4
23:55 1021 30.15 851 25.13 1.7 35.1 77 -2 28.5
24:00 1021 30.15 851 25.13 1.7 35 78 -1.8 28.7